Time;durP1;ratioP1;P1;durP2;ratioP2;P2;SDS_P1;SDS_P2;PMS_P1;PMS_P2;Temp;Humidity;BMP_temperature;BMP_pressure;BME280_temperature;BME280_humidity;BME280_pressure;Samples;Min_cycle;Max_cycle;Signal;HPM_P1;HPM_P2
2022/07/12 04:31:24;;;;;;;;;3.75;3.75;;;;;24.22;48.98;101821.84;1423396;26;46102;-71
2022/07/12 04:33:51;;;;;;;;;2.50;2.50;;;;;24.25;48.90;101828.94;5053970;28;45251;-71
2022/07/12 04:36:16;;;;;;;;;4.50;3.00;;;;;24.28;48.95;101843.25;5054468;28;45481;-72
2022/07/12 04:38:42;;;;;;;;;2.75;1.00;;;;;24.30;49.37;101844.00;5054344;28;45295;-70
2022/07/12 04:41:07;;;;;;;;;3.00;3.00;;;;;24.23;49.42;101829.09;5054281;28;45376;-71
2022/07/12 04:43:32;;;;;;;;;3.75;3.75;;;;;24.21;49.15;101820.13;5054208;28;45307;-69
2022/07/12 04:46:10;;;;;;;;;6.75;4.00;;;;;24.24;48.93;101838.19;5054349;28;45332;-70
2022/07/12 04:48:36;;;;;;;;;3.75;3.75;;;;;24.25;49.09;101839.88;5053864;28;45578;-70
2022/07/12 04:51:02;;;;;;;;;4.00;4.00;;;;;24.20;48.81;101836.66;5053800;28;46029;-70
2022/07/12 04:53:29;;;;;;;;;5.50;5.25;;;;;24.24;49.32;101840.91;5054108;28;45233;-70
2022/07/12 04:55:55;;;;;;;;;4.25;3.25;;;;;24.18;49.44;101839.53;5052133;28;45389;-69
2022/07/12 04:58:21;;;;;;;;;6.50;6.50;;;;;24.24;49.53;101843.66;5053818;28;46087;-71
2022/07/12 05:00:46;;;;;;;;;4.50;3.00;;;;;24.20;49.14;101842.13;5053693;28;45863;-71
2022/07/12 05:03:12;;;;;;;;;4.50;4.50;;;;;24.23;49.23;101839.19;5062843;28;45369;-71
2022/07/12 05:05:37;;;;;;;;;4.00;4.00;;;;;24.25;49.57;101853.59;5054148;28;45370;-69
2022/07/12 05:08:03;;;;;;;;;4.00;3.25;;;;;24.31;49.25;101850.34;5053798;28;45529;-71
2022/07/12 05:10:28;;;;;;;;;5.25;5.00;;;;;24.32;49.13;101852.09;5053211;28;45459;-73
2022/07/12 05:12:53;;;;;;;;;4.50;4.50;;;;;24.36;49.10;101854.41;5053860;28;45248;-69
2022/07/12 05:15:19;;;;;;;;;6.75;5.00;;;;;24.33;49.18;101846.44;5052811;28;45383;-70
2022/07/12 05:17:45;;;;;;;;;4.50;4.00;;;;;24.38;49.02;101860.66;5053053;28;45555;-73
2022/07/12 05:20:10;;;;;;;;;6.00;4.75;;;;;24.41;49.23;101865.84;5052448;28;46741;-72
2022/07/12 05:22:35;;;;;;;;;4.50;4.50;;;;;24.45;48.99;101866.47;5072905;28;45335;-75
2022/07/12 05:25:01;;;;;;;;;4.75;4.50;;;;;24.45;48.63;101864.59;5057219;28;45489;-74
2022/07/12 05:27:26;;;;;;;;;6.00;5.25;;;;;24.42;48.76;101867.59;5055803;28;47330;-73
2022/07/12 05:29:51;;;;;;;;;5.00;5.00;;;;;24.48;48.58;101878.03;5056988;28;46114;-75
2022/07/12 05:32:17;;;;;;;;;5.50;5.50;;;;;24.52;48.62;101870.41;5047643;28;45305;-72
2022/07/12 05:34:42;;;;;;;;;5.25;4.00;;;;;24.54;48.91;101878.50;5036959;28;45258;-71
2022/07/12 05:37:08;;;;;;;;;5.75;5.75;;;;;24.51;48.70;101868.66;5036538;28;45368;-71
2022/07/12 05:39:33;;;;;;;;;6.50;4.25;;;;;24.58;48.94;101889.09;5036621;28;45350;-71
2022/07/12 05:41:58;;;;;;;;;4.25;4.25;;;;;24.57;48.61;101883.72;5036643;28;45379;-68
2022/07/12 05:44:24;;;;;;;;;6.75;5.25;;;;;24.51;48.48;101879.63;5037014;28;45203;-70
2022/07/12 05:46:49;;;;;;;;;9.00;7.75;;;;;24.62;48.65;101890.53;5036437;28;45543;-72
2022/07/12 05:49:14;;;;;;;;;6.50;6.50;;;;;24.48;48.44;101863.47;5036303;28;46030;-72
2022/07/12 05:54:23;;;;;;;;;6.50;6.25;;;;;24.65;48.12;101895.78;5035679;28;45376;-71
2022/07/12 05:56:50;;;;;;;;;7.75;7.25;;;;;24.61;48.41;101882.44;5035580;28;45329;-71
2022/07/12 05:59:19;;;;;;;;;6.50;5.50;;;;;24.67;48.36;101898.38;5036302;28;46399;-71
2022/07/12 06:01:44;;;;;;;;;5.75;4.25;;;;;24.71;48.41;101906.19;5041419;28;45427;-71
2022/07/12 06:04:10;;;;;;;;;5.25;5.25;;;;;24.71;48.70;101889.75;5040143;28;45385;-69
2022/07/12 06:06:35;;;;;;;;;7.00;7.00;;;;;24.74;48.45;101891.34;5036264;28;46595;-71
2022/07/12 06:09:01;;;;;;;;;5.25;5.25;;;;;24.72;48.63;101898.84;5036101;28;46022;-71
2022/07/12 06:11:27;;;;;;;;;7.00;5.25;;;;;24.77;48.36;101894.69;5018347;28;45288;-71
2022/07/12 06:13:52;;;;;;;;;6.00;6.00;;;;;24.80;48.25;101890.81;5036225;28;45456;-71
2022/07/12 06:16:17;;;;;;;;;7.50;7.00;;;;;24.85;48.33;101902.22;5035996;28;45331;-70
2022/07/12 06:18:43;;;;;;;;;8.75;8.50;;;;;24.93;48.20;101912.56;5035403;28;45781;-71
2022/07/12 06:21:08;;;;;;;;;3.75;3.75;;;;;24.95;48.17;101914.19;5035955;28;49052;-71
2022/07/12 06:23:33;;;;;;;;;9.75;7.75;;;;;24.96;47.97;101907.69;5035801;28;45467;-71
2022/07/12 06:25:58;;;;;;;;;8.50;8.50;;;;;24.85;47.72;101886.66;5035983;28;45463;-71
2022/07/12 06:28:24;;;;;;;;;7.00;7.00;;;;;24.98;47.50;101913.91;5035820;28;49614;-72
2022/07/12 06:30:49;;;;;;;;;7.50;7.25;;;;;24.96;47.69;101909.56;5017812;28;45384;-71
2022/07/12 06:33:14;;;;;;;;;6.50;5.00;;;;;24.98;47.55;101910.31;5033789;28;45474;-69
2022/07/12 06:35:40;;;;;;;;;7.00;5.25;;;;;24.99;47.36;101904.69;5035944;28;45463;-71
2022/07/12 06:38:05;;;;;;;;;5.75;5.00;;;;;25.00;47.59;101905.56;5035454;28;45654;-71
2022/07/12 06:40:31;;;;;;;;;8.75;5.50;;;;;25.01;47.19;101910.03;5035834;28;45344;-71
2022/07/12 06:42:56;;;;;;;;;7.00;7.00;;;;;25.02;47.56;101915.38;5035767;28;46119;-71
2022/07/12 06:45:22;;;;;;;;;7.00;6.75;;;;;25.08;47.21;101906.63;5036164;28;45478;-72
2022/07/12 06:47:47;;;;;;;;;8.50;7.00;;;;;25.15;46.83;101904.19;5035527;28;45896;-71
2022/07/12 06:50:13;;;;;;;;;6.00;6.00;;;;;25.26;46.96;101907.69;5035660;28;45442;-72
2022/07/12 06:52:38;;;;;;;;;9.50;9.25;;;;;25.36;46.82;101915.13;5035990;28;45333;-72
2022/07/12 06:55:05;;;;;;;;;6.50;5.50;;;;;25.32;46.97;101903.56;5035673;28;45436;-68
2022/07/12 06:57:30;;;;;;;;;7.00;7.00;;;;;25.34;46.75;101897.94;5035144;28;46408;-70
2022/07/12 06:59:56;;;;;;;;;7.25;6.25;;;;;25.34;46.88;101908.91;5035876;28;45393;-70
2022/07/12 07:02:22;;;;;;;;;6.25;6.25;;;;;25.32;46.54;101917.28;5045113;28;45243;-71
2022/07/12 07:04:47;;;;;;;;;6.25;6.25;;;;;25.31;46.54;101914.66;5035217;28;45386;-71
2022/07/12 07:07:13;;;;;;;;;5.25;5.25;;;;;25.34;46.51;101915.28;5035587;28;45308;-68
2022/07/12 07:09:38;;;;;;;;;6.00;6.00;;;;;25.37;46.35;101925.97;5035588;28;45456;-70
2022/07/12 07:12:04;;;;;;;;;8.25;7.25;;;;;25.36;47.22;101915.97;5035314;28;45393;-70
2022/07/12 07:14:29;;;;;;;;;10.00;7.00;;;;;25.38;46.81;101913.09;5035268;28;45465;-70
2022/07/12 07:16:55;;;;;;;;;7.00;7.00;;;;;25.45;47.17;101930.75;5034940;28;46038;-70
2022/07/12 07:19:22;;;;;;;;;9.50;7.00;;;;;25.40;47.21;101902.88;5034777;28;45292;-71
2022/07/12 07:21:48;;;;;;;;;7.00;5.75;;;;;25.52;46.61;101918.25;5035188;28;45392;-71
2022/07/12 07:24:13;;;;;;;;;10.25;6.25;;;;;25.50;47.05;101910.13;5034896;28;45329;-70
2022/07/12 07:26:38;;;;;;;;;7.50;7.50;;;;;25.53;46.73;101920.81;5035230;28;45537;-70
2022/07/12 07:31:47;;;;;;;;;7.50;7.00;;;;;25.59;46.76;101919.47;5035026;28;45595;-69
2022/07/12 07:34:13;;;;;;;;;9.50;8.25;;;;;25.54;46.61;101906.09;5034721;28;45534;-70
2022/07/12 07:36:38;;;;;;;;;9.75;8.00;;;;;25.65;46.67;101927.13;5034809;28;45381;-70
2022/07/12 07:39:03;;;;;;;;;8.75;8.75;;;;;25.66;46.60;101917.88;5034849;28;45358;-71
2022/07/12 07:41:29;;;;;;;;;3.75;3.75;;;;;25.67;46.60;101916.88;5035233;28;45265;-71
2022/07/12 07:43:54;;;;;;;;;10.75;8.50;;;;;25.69;46.33;101920.34;5016634;28;47527;-70
2022/07/12 07:46:20;;;;;;;;;10.00;8.50;;;;;25.74;45.91;101925.44;5035083;28;45329;-71
2022/07/12 07:48:45;;;;;;;;;7.75;7.75;;;;;25.73;45.96;101924.56;5034657;28;45405;-69
2022/07/12 07:51:10;;;;;;;;;9.00;8.00;;;;;25.80;46.10;101922.09;5034786;28;45367;-69
2022/07/12 07:53:36;;;;;;;;;10.75;9.00;;;;;25.82;46.03;101925.59;5034772;28;45328;-73
2022/07/12 07:56:01;;;;;;;;;7.25;7.25;;;;;25.86;46.17;101921.56;5034526;28;45361;-72
2022/07/12 07:58:26;;;;;;;;;7.50;7.50;;;;;25.90;45.60;101923.00;5034921;28;45308;-70
2022/07/12 08:00:52;;;;;;;;;7.50;7.00;;;;;25.95;46.13;101931.69;5034883;28;45256;-70
2022/07/12 08:03:19;;;;;;;;;7.00;7.00;;;;;25.96;45.79;101926.06;5043637;28;46075;-70
2022/07/12 08:05:45;;;;;;;;;8.00;7.00;;;;;26.05;45.85;101929.81;5034725;28;45444;-70
2022/07/12 08:08:10;;;;;;;;;7.50;6.50;;;;;26.06;45.96;101925.19;5016731;28;45247;-70
2022/07/12 08:10:35;;;;;;;;;8.00;8.00;;;;;26.06;45.24;101925.19;5034542;28;45529;-70
2022/07/12 08:13:01;;;;;;;;;7.25;7.25;;;;;26.08;44.91;101915.81;5034699;28;45399;-69
2022/07/12 08:15:26;;;;;;;;;11.50;8.50;;;;;26.22;45.79;101942.88;5034406;28;45917;-69
2022/07/12 08:17:52;;;;;;;;;6.50;6.50;;;;;26.30;45.54;101944.94;5033851;28;45353;-69
2022/07/12 08:20:18;;;;;;;;;6.50;6.50;;;;;26.30;44.79;101939.44;5033396;28;45573;-70
2022/07/12 08:22:45;;;;;;;;;6.50;6.50;;;;;26.32;44.98;101938.31;5032055;28;45591;-70
2022/07/12 08:25:10;;;;;;;;;5.00;5.00;;;;;26.43;44.70;101942.81;5031851;28;45372;-71
2022/07/12 08:27:36;;;;;;;;;6.25;6.00;;;;;26.34;44.44;101933.53;5031866;28;45446;-70
2022/07/12 08:30:01;;;;;;;;;4.50;4.50;;;;;26.50;44.47;101938.47;5026180;28;45401;-69
2022/07/12 08:32:26;;;;;;;;;8.00;6.00;;;;;26.53;44.59;101948.31;5032177;28;45454;-70
2022/07/12 08:34:52;;;;;;;;;8.75;7.75;;;;;26.49;44.17;101936.72;5031896;28;45697;-70
2022/07/12 08:37:17;;;;;;;;;6.75;6.75;;;;;26.56;44.63;101937.00;5033334;28;45336;-70
2022/07/12 08:39:42;;;;;;;;;5.00;5.00;;;;;26.55;43.73;101927.88;5034049;28;45413;-70
2022/07/12 08:42:08;;;;;;;;;6.00;5.75;;;;;26.61;43.85;101927.31;5034361;28;45278;-70
2022/07/12 08:44:34;;;;;;;;;6.25;5.25;;;;;26.64;43.46;101929.75;5034087;28;46321;-70
2022/07/12 08:46:59;;;;;;;;;5.00;5.00;;;;;26.64;43.78;101938.00;5033263;28;45371;-70
2022/07/12 08:49:24;;;;;;;;;9.75;6.00;;;;;26.63;44.14;101927.13;5033999;28;45554;-70
2022/07/12 08:51:50;;;;;;;;;6.00;4.50;;;;;26.68;43.73;101941.34;5034201;28;45270;-70
2022/07/12 08:54:18;;;;;;;;;8.00;7.00;;;;;26.67;43.58;101936.84;5033825;28;45475;-70
2022/07/12 08:56:44;;;;;;;;;4.25;4.25;;;;;26.71;42.29;101935.56;5036322;28;45442;-71
2022/07/12 08:59:14;;;;;;;;;4.50;4.50;;;;;26.75;43.03;101943.38;5037355;28;45342;-71
2022/07/12 09:01:44;;;;;;;;;5.25;4.50;;;;;26.74;42.66;101935.25;5041585;28;45470;-71
2022/07/12 09:04:14;;;;;;;;;4.00;4.00;;;;;26.83;42.61;101941.75;5041721;28;45363;-72
2022/07/12 09:06:40;;;;;;;;;6.00;4.25;;;;;26.87;41.96;101929.47;5037699;28;45352;-71
2022/07/12 09:09:08;;;;;;;;;3.00;3.00;;;;;26.90;42.34;101927.25;5037350;28;45620;-73
2022/07/12 09:11:35;;;;;;;;;5.25;5.25;;;;;27.01;41.93;101942.78;5037482;28;45466;-73
2022/07/12 09:14:02;;;;;;;;;3.75;3.75;;;;;27.06;41.77;101934.94;5037131;28;45300;-73
2022/07/12 09:16:28;;;;;;;;;4.25;4.25;;;;;27.04;42.03;101917.72;5037292;28;45478;-74
2022/07/12 09:19:11;;;;;;;;;3.50;2.50;;;;;27.19;41.23;101946.50;5037006;28;45249;-73
2022/07/12 09:21:36;;;;;;;;;4.00;4.00;;;;;27.25;41.53;101947.78;5037087;28;45620;-73
2022/07/12 09:24:02;;;;;;;;;5.00;4.00;;;;;27.27;40.58;101943.00;5036883;28;45361;-72
2022/07/12 09:26:32;;;;;;;;;4.50;4.25;;;;;27.26;40.31;101924.75;5037256;28;45401;-69
2022/07/12 09:29:06;;;;;;;;;3.00;3.00;;;;;27.33;40.79;101935.00;5037596;28;45366;-70
2022/07/12 09:31:39;;;;;;;;;5.25;5.00;;;;;27.32;40.15;101926.88;5037058;28;45448;-70
2022/07/12 09:36:56;;;;;;;;;3.75;3.75;;;;;27.38;39.12;101940.94;5037062;28;45225;-68
2022/07/12 09:39:23;;;;;;;;;5.50;4.25;;;;;27.35;39.44;101938.47;5037179;28;45405;-71
2022/07/12 09:41:49;;;;;;;;;3.75;3.75;;;;;27.46;39.39;101946.56;5037008;28;45336;-69
2022/07/12 09:44:18;;;;;;;;;4.75;4.25;;;;;27.44;39.69;101940.34;5036922;28;46241;-70
2022/07/12 09:46:44;;;;;;;;;3.75;3.75;;;;;27.44;37.99;101943.09;5036987;28;45470;-69
2022/07/12 09:49:10;;;;;;;;;3.75;3.00;;;;;27.53;38.53;101946.81;5036836;28;45396;-72
2022/07/12 09:51:38;;;;;;;;;2.50;2.50;;;;;27.48;38.18;101932.63;5036771;28;45592;-70
2022/07/12 09:54:06;;;;;;;;;3.50;3.50;;;;;27.55;38.71;101930.19;5036584;28;45518;-72
2022/07/12 09:56:35;;;;;;;;;6.00;4.00;;;;;27.58;37.52;101949.16;5036385;28;45772;-69
2022/07/12 09:59:01;;;;;;;;;6.75;3.75;;;;;27.67;37.52;101940.84;5036898;28;45368;-69
2022/07/12 10:01:30;;;;;;;;;4.00;3.00;;;;;27.68;37.37;101944.47;5039008;28;45323;-70
2022/07/12 10:03:59;;;;;;;;;3.75;3.75;;;;;27.73;36.84;101953.16;5041079;28;46142;-70
2022/07/12 10:06:29;;;;;;;;;3.00;3.00;;;;;27.64;37.39;101919.13;5036505;28;45427;-70
2022/07/12 10:08:55;;;;;;;;;5.75;4.50;;;;;27.80;37.15;101937.75;5036444;28;45272;-70
2022/07/12 10:11:24;;;;;;;;;3.25;3.25;;;;;27.89;35.98;101944.22;5036463;28;45151;-70
2022/07/12 10:13:51;;;;;;;;;2.75;2.25;;;;;27.90;35.83;101935.81;5036881;28;45420;-69
2022/07/12 10:16:25;;;;;;;;;3.00;3.00;;;;;27.96;36.04;101946.22;5036461;28;45450;-70
2022/07/12 10:19:23;;;;;;;;;3.25;3.25;;;;;27.97;35.90;101936.06;5036089;28;45477;-70
2022/07/12 10:21:50;;;;;;;;;4.00;3.00;;;;;28.05;35.49;101938.91;5028888;28;45338;-70
2022/07/12 10:24:42;;;;;;;;;3.25;3.25;;;;;28.11;36.34;101936.38;5036294;28;45224;-74
2022/07/12 10:27:13;;;;;;;;;2.75;2.75;;;;;28.18;36.46;101929.25;5031957;28;45668;-70
2022/07/12 10:29:40;;;;;;;;;4.25;3.00;;;;;28.22;36.06;101938.97;5036296;28;45361;-73
2022/07/12 10:32:24;;;;;;;;;3.00;3.00;;;;;28.27;36.38;101932.97;5040505;28;45463;-73
2022/07/12 10:35:01;;;;;;;;;5.00;5.00;;;;;28.34;36.20;101938.72;5050420;28;47411;-71
2022/07/12 10:37:28;;;;;;;;;4.00;4.00;;;;;28.36;35.55;101928.41;5054335;28;45513;-73
2022/07/12 10:40:18;;;;;;;;;4.75;4.75;;;;;28.46;35.42;101937.47;5054322;28;45553;-73
2022/07/12 10:43:05;;;;;;;;;4.00;4.00;;;;;28.52;34.72;101934.94;5053948;28;45523;-71
2022/07/12 10:45:42;;;;;;;;;3.75;3.00;;;;;28.58;34.74;101930.69;5051928;28;45507;-71
2022/07/12 10:48:14;;;;;;;;;4.50;3.00;;;;;28.60;35.74;101929.50;5051620;28;45317;-72
2022/07/12 10:50:45;;;;;;;;;3.75;3.75;;;;;28.65;34.75;101936.44;5049689;28;45523;-72
2022/07/12 10:53:42;;;;;;;;;3.00;3.00;;;;;28.61;34.02;101925.72;5053006;28;45357;-70
2022/07/12 10:56:11;;;;;;;;;3.25;3.00;;;;;28.64;33.78;101930.06;5053851;28;45322;-71
2022/07/12 10:58:43;;;;;;;;;3.75;3.75;;;;;28.67;33.52;101918.66;5052642;28;45812;-73
2022/07/12 11:01:15;;;;;;;;;4.00;4.00;;;;;28.74;33.29;101925.31;5052166;28;45526;-70
2022/07/12 11:03:44;;;;;;;;;4.50;3.00;;;;;28.79;33.19;101922.97;5056221;27;45289;-72
2022/07/12 11:06:12;;;;;;;;;3.00;3.00;;;;;28.86;31.73;101926.81;5070092;28;46537;-73
2022/07/12 11:08:50;;;;;;;;;2.75;2.75;;;;;28.94;31.83;101932.38;5052771;28;45658;-73
2022/07/12 11:11:16;;;;;;;;;3.25;3.25;;;;;28.86;32.05;101910.25;5052848;28;45523;-73
2022/07/12 11:13:41;;;;;;;;;2.75;2.75;;;;;28.91;31.22;101913.41;5051070;28;45464;-72
2022/07/12 11:16:07;;;;;;;;;4.00;2.75;;;;;29.04;31.32;101926.78;5053794;28;46133;-70
2022/07/12 11:18:34;;;;;;;;;6.00;3.75;;;;;29.11;32.05;101921.47;5052716;28;46038;-72
2022/07/12 11:21:01;;;;;;;;;4.00;3.00;;;;;29.16;29.96;101919.09;5054029;28;45554;-71
2022/07/12 11:23:28;;;;;;;;;1.75;1.75;;;;;29.24;28.60;101921.91;5051243;28;45346;-70
2022/07/12 11:25:58;;;;;;;;;7.00;5.25;;;;;29.24;28.33;101897.91;5053549;28;47212;-73
2022/07/12 11:28:24;;;;;;;;;3.00;3.00;;;;;29.31;29.00;101889.81;5053502;28;45455;-71
2022/07/12 11:30:54;;;;;;;;;5.00;3.00;;;;;29.41;29.61;101896.13;5054036;28;45342;-71
2022/07/12 11:33:25;;;;;;;;;4.00;4.00;;;;;29.60;29.49;101920.72;5053040;28;45518;-72
2022/07/12 11:35:51;;;;;;;;;3.50;3.50;;;;;29.57;29.53;101896.22;5051618;28;46637;-73
2022/07/12 11:38:32;;;;;;;;;4.25;4.25;;;;;29.72;29.13;101919.41;5091488;27;45452;-57
2022/07/12 11:40:59;;;;;;;;;4.75;3.00;;;;;29.80;29.09;101914.94;5070383;28;45387;-57
2022/07/12 11:43:25;;;;;;;;;4.00;4.00;;;;;29.84;28.84;101919.97;5074447;28;45566;-58
2022/07/12 11:45:52;;;;;;;;;5.75;4.00;;;;;29.82;29.18;101913.75;5075071;28;45358;-58
2022/07/12 11:48:18;;;;;;;;;3.25;3.25;;;;;29.79;29.24;101894.72;5075370;28;45266;-58
2022/07/12 11:50:46;;;;;;;;;5.25;4.25;;;;;29.94;29.72;101904.13;5076095;27;45363;-59
2022/07/12 11:53:19;;;;;;;;;5.00;4.75;;;;;30.07;29.47;101903.66;5076064;27;45370;-59
2022/07/12 11:55:46;;;;;;;;;6.00;4.50;;;;;30.05;29.36;101900.19;5063814;27;45326;-58
2022/07/12 11:58:13;;;;;;;;;5.25;4.75;;;;;30.02;29.59;101900.53;5062764;28;45409;-59
2022/07/12 12:00:39;;;;;;;;;4.00;4.00;;;;;29.93;29.04;101896.00;5075780;28;45318;-59
2022/07/12 12:03:05;;;;;;;;;5.00;5.00;;;;;29.82;29.44;101894.41;5075559;28;45832;-59
2022/07/12 12:05:30;;;;;;;;;4.75;4.75;;;;;29.87;28.31;101896.63;5075723;28;45536;-58
2022/07/12 12:07:57;;;;;;;;;6.00;4.50;;;;;29.95;29.12;101892.03;5075535;27;46178;-59
2022/07/12 12:10:22;;;;;;;;;4.00;4.00;;;;;30.09;29.43;101887.75;5075632;28;45362;-59
2022/07/12 12:12:51;;;;;;;;;6.00;6.00;;;;;30.11;28.66;101866.34;5075771;28;45296;-59
2022/07/12 12:15:31;;;;;;;;;3.25;3.00;;;;;30.23;29.02;101883.44;5075484;28;45459;-59
2022/07/12 12:18:07;;;;;;;;;3.00;3.00;;;;;30.29;28.61;101880.84;5075368;28;45973;-59
2022/07/12 12:20:38;;;;;;;;;5.00;5.00;;;;;30.40;28.13;101875.00;5090908;27;45393;-59
2022/07/12 12:23:24;;;;;;;;;6.75;5.50;;;;;30.51;27.58;101875.69;5075516;28;45339;-59
2022/07/12 12:25:49;;;;;;;;;6.00;6.00;;;;;30.57;27.44;101870.34;5074990;28;45398;-60
2022/07/12 12:28:15;;;;;;;;;5.25;5.25;;;;;30.65;26.54;101870.34;5075219;28;45432;-60
2022/07/12 12:30:54;;;;;;;;;4.50;3.00;;;;;30.61;27.72;101865.34;5075399;28;45188;-59
2022/07/12 12:33:42;;;;;;;;;4.00;4.00;;;;;30.58;27.40;101876.75;5075361;28;45479;-59
2022/07/12 12:36:11;;;;;;;;;4.00;3.00;;;;;30.56;27.65;101873.28;5075237;27;45525;-59
2022/07/12 12:38:36;;;;;;;;;3.25;3.25;;;;;30.46;27.67;101871.53;5095574;27;46374;-58
2022/07/12 12:41:01;;;;;;;;;5.00;3.75;;;;;30.41;27.25;101868.44;5095237;27;46610;-58
2022/07/12 12:43:27;;;;;;;;;3.00;3.00;;;;;30.37;27.18;101866.16;5095671;27;45167;-58
2022/07/12 12:45:55;;;;;;;;;4.25;3.00;;;;;30.35;26.35;101862.72;5095522;27;45384;-58
2022/07/12 12:48:24;;;;;;;;;2.25;2.25;;;;;30.47;26.61;101866.84;5090241;27;45356;-58
2022/07/12 12:50:51;;;;;;;;;6.50;3.00;;;;;30.49;26.60;101848.19;5081762;28;45328;-58
2022/07/12 12:53:18;;;;;;;;;3.25;3.00;;;;;30.50;26.31;101854.59;5082072;28;45333;-58
2022/07/12 12:55:46;;;;;;;;;4.00;3.00;;;;;30.47;25.68;101862.19;5060475;28;45500;-58
2022/07/12 12:58:12;;;;;;;;;2.00;2.00;;;;;30.60;26.10;101858.94;5081506;28;45320;-59
2022/07/12 13:00:41;;;;;;;;;4.50;3.00;;;;;30.69;26.37;101854.28;5080817;28;45346;-59
2022/07/12 13:03:11;;;;;;;;;4.00;4.00;;;;;30.72;26.68;101854.75;5081193;28;45400;-58
2022/07/12 13:05:37;;;;;;;;;4.00;4.00;;;;;30.80;26.25;101851.13;5081238;28;45654;-59
2022/07/12 13:08:04;;;;;;;;;4.00;4.00;;;;;30.76;26.13;101858.06;5079534;28;45543;-58
2022/07/12 13:10:30;;;;;;;;;4.50;3.25;;;;;30.72;25.89;101845.59;5079794;27;45607;-59
2022/07/12 13:12:56;;;;;;;;;3.00;3.00;;;;;30.77;25.26;101844.03;5087531;27;45342;-63
2022/07/12 13:15:21;;;;;;;;;2.00;2.00;;;;;30.94;24.25;101844.88;5084377;27;45600;-63
2022/07/12 13:17:47;;;;;;;;;2.00;2.00;;;;;31.13;24.59;101838.97;5079149;28;45951;-63
2022/07/12 13:20:13;;;;;;;;;2.00;2.00;;;;;31.34;24.53;101843.03;5079134;28;45493;-62
2022/07/12 13:22:40;;;;;;;;;1.00;1.00;;;;;31.52;24.55;101844.53;5079649;28;45744;-62
2022/07/12 13:25:07;;;;;;;;;2.75;2.00;;;;;31.56;25.28;101829.25;5077272;27;45542;-63
2022/07/12 13:27:33;;;;;;;;;3.75;2.75;;;;;31.60;25.20;101821.44;5079809;28;45397;-62
2022/07/12 13:29:59;;;;;;;;;5.25;4.25;;;;;31.54;24.70;101827.72;5078584;28;45595;-63
2022/07/12 13:32:24;;;;;;;;;3.00;3.00;;;;;31.46;24.88;101820.31;5080442;28;45208;-62
2022/07/12 13:34:50;;;;;;;;;5.25;5.25;;;;;31.40;25.70;101825.69;5079598;28;45384;-63
2022/07/12 13:37:16;;;;;;;;;3.00;3.00;;;;;31.45;25.41;101826.91;5076696;28;45378;-63
2022/07/12 13:42:26;;;;;;;;;4.50;3.25;;;;;31.44;25.31;101816.84;5080257;28;45368;-63
2022/07/12 13:44:52;;;;;;;;;3.00;3.00;;;;;31.41;25.74;101827.41;5079951;28;45504;-63
2022/07/12 13:47:23;;;;;;;;;3.00;3.00;;;;;31.30;24.41;101817.63;5080016;28;45458;-63
2022/07/12 13:49:49;;;;;;;;;2.25;2.25;;;;;31.31;24.84;101822.09;5061585;28;45375;-61
2022/07/12 13:52:15;;;;;;;;;3.00;3.00;;;;;31.29;24.21;101815.88;5080452;28;45391;-63
2022/07/12 13:54:43;;;;;;;;;2.50;1.75;;;;;31.23;24.74;101805.50;5079912;28;45285;-62
2022/07/12 13:57:09;;;;;;;;;3.00;3.00;;;;;31.26;25.09;101809.81;5078928;28;46258;-63
2022/07/12 13:59:35;;;;;;;;;3.00;3.00;;;;;31.36;25.31;101813.25;5079394;28;45344;-62
2022/07/12 14:02:00;;;;;;;;;2.25;2.25;;;;;31.60;24.13;101826.97;5077516;28;45357;-64
2022/07/12 14:04:25;;;;;;;;;2.75;2.75;;;;;31.81;24.62;101824.47;5079502;28;53656;-63
2022/07/12 14:06:51;;;;;;;;;3.75;3.75;;;;;31.94;23.79;101824.72;5078842;28;46302;-62
2022/07/12 14:09:16;;;;;;;;;3.50;3.50;;;;;32.20;24.10;101821.63;5080014;28;45359;-63
2022/07/12 14:11:42;;;;;;;;;3.00;3.00;;;;;32.42;24.46;101816.22;5080643;28;45366;-64
2022/07/12 14:14:07;;;;;;;;;2.00;2.00;;;;;32.63;22.81;101821.94;5080181;28;45342;-63
2022/07/12 14:16:33;;;;;;;;;3.25;3.25;;;;;32.84;23.48;101810.09;5080000;28;50731;-64
2022/07/12 14:18:59;;;;;;;;;2.50;2.50;;;;;32.91;22.29;101813.88;5079743;28;45186;-63
2022/07/12 14:21:27;;;;;;;;;3.00;3.00;;;;;32.96;21.86;101808.59;5080239;28;45321;-64
2022/07/12 14:23:53;;;;;;;;;3.00;3.00;;;;;33.05;22.13;101802.75;5079735;28;46142;-63
2022/07/12 14:26:19;;;;;;;;;3.00;3.00;;;;;33.18;21.70;101799.28;5079862;28;46279;-63
2022/07/12 14:28:44;;;;;;;;;2.00;2.00;;;;;33.31;22.43;101802.28;5079574;28;45374;-63
2022/07/12 14:31:09;;;;;;;;;3.50;3.50;;;;;33.27;22.64;101794.50;5080296;28;45379;-64
2022/07/12 14:33:35;;;;;;;;;3.00;3.00;;;;;33.43;22.82;101797.94;5079692;28;49781;-63
2022/07/12 14:36:00;;;;;;;;;6.25;3.00;;;;;33.38;22.14;101792.09;5080033;28;45359;-62
2022/07/12 14:38:25;;;;;;;;;2.25;2.25;;;;;33.31;22.50;101795.84;5079809;28;45335;-64
2022/07/12 14:40:51;;;;;;;;;2.75;2.75;;;;;33.12;22.33;101790.84;5079784;28;45275;-63
2022/07/12 14:43:17;;;;;;;;;4.00;4.00;;;;;32.86;22.87;101791.34;5079352;28;45434;-64
2022/07/12 14:45:42;;;;;;;;;3.00;3.00;;;;;32.69;23.02;101791.50;5079559;28;46119;-64
2022/07/12 14:48:08;;;;;;;;;4.00;2.00;;;;;32.38;23.36;101790.75;5078744;28;45411;-63
2022/07/12 14:50:34;;;;;;;;;4.75;4.75;;;;;32.15;23.48;101781.56;5079804;28;45288;-64
2022/07/12 14:52:59;;;;;;;;;4.00;4.00;;;;;32.03;23.18;101777.50;5061101;28;45645;-63
2022/07/12 14:55:24;;;;;;;;;6.75;4.00;;;;;31.88;23.53;101781.09;5079522;28;46046;-64
2022/07/12 14:57:50;;;;;;;;;3.25;3.25;;;;;31.82;24.03;101779.03;5079724;28;45174;-63
2022/07/12 15:00:15;;;;;;;;;4.00;3.00;;;;;31.84;24.26;101782.50;5079845;28;45361;-64
2022/07/12 15:02:40;;;;;;;;;3.00;3.00;;;;;31.88;23.91;101781.09;5078079;28;45575;-64
2022/07/12 15:05:07;;;;;;;;;3.00;3.00;;;;;32.06;23.87;101766.91;5079753;28;45285;-64
2022/07/12 15:07:33;;;;;;;;;2.75;2.75;;;;;32.32;23.28;101769.31;5079496;28;45293;-63
2022/07/12 15:09:58;;;;;;;;;3.50;3.00;;;;;32.67;22.37;101782.47;5079476;28;45283;-64
2022/07/12 15:12:24;;;;;;;;;4.00;3.00;;;;;32.97;21.78;101765.84;5079014;28;45458;-63
2022/07/12 15:14:50;;;;;;;;;3.00;3.00;;;;;33.22;22.06;101758.09;5079296;28;46456;-64
2022/07/12 15:17:16;;;;;;;;;3.75;2.75;;;;;33.48;21.36;101763.13;5079307;28;45364;-63
2022/07/12 15:19:42;;;;;;;;;2.50;2.50;;;;;33.62;21.83;101759.44;5078970;28;45375;-63
2022/07/12 15:22:09;;;;;;;;;4.25;2.75;;;;;33.54;22.26;101760.41;5078859;28;51105;-64
2022/07/12 15:24:34;;;;;;;;;4.25;3.75;;;;;33.47;22.32;101753.06;5079110;28;46000;-64
2022/07/12 15:27:00;;;;;;;;;4.00;3.00;;;;;33.53;21.88;101752.25;5079059;28;45383;-64
2022/07/12 15:29:25;;;;;;;;;4.00;2.00;;;;;33.40;21.93;101753.84;5079343;28;45252;-63
2022/07/12 15:31:50;;;;;;;;;3.00;2.00;;;;;33.31;21.68;101751.38;5079171;28;45435;-64
2022/07/12 15:34:16;;;;;;;;;3.25;3.00;;;;;33.22;21.79;101746.97;5078176;28;45273;-63
2022/07/12 15:36:42;;;;;;;;;3.00;3.00;;;;;33.08;21.71;101748.72;5079001;28;45414;-63
2022/07/12 15:39:07;;;;;;;;;3.00;3.00;;;;;32.86;20.93;101738.56;5080006;27;46402;-63
2022/07/12 15:41:35;;;;;;;;;3.00;3.00;;;;;32.76;21.45;101740.75;5082249;27;46979;-63
2022/07/12 15:44:03;;;;;;;;;1.50;1.50;;;;;32.63;21.06;101742.25;5078750;28;45499;-63
2022/07/12 15:46:28;;;;;;;;;3.00;3.00;;;;;32.64;21.34;101726.47;5078465;28;45534;-64
2022/07/12 15:48:54;;;;;;;;;2.00;2.00;;;;;32.83;21.52;101744.50;5078606;28;45432;-63
2022/07/12 15:51:19;;;;;;;;;2.00;2.00;;;;;32.83;21.41;101739.81;5078250;28;45438;-63
2022/07/12 15:53:44;;;;;;;;;3.75;3.00;;;;;32.86;20.84;101746.88;5077668;28;53258;-65
2022/07/12 15:56:10;;;;;;;;;4.00;3.00;;;;;32.97;21.80;101740.84;5078439;28;45474;-63
2022/07/12 15:58:38;;;;;;;;;3.25;3.25;;;;;33.20;21.16;101735.16;5078248;28;45335;-62
2022/07/12 16:01:03;;;;;;;;;3.50;3.50;;;;;33.35;21.20;101739.66;5077988;28;45532;-63
2022/07/12 16:03:29;;;;;;;;;3.00;3.00;;;;;33.61;21.01;101736.31;5078150;28;45453;-62
2022/07/12 16:05:57;;;;;;;;;2.00;2.00;;;;;33.69;19.91;101743.69;5078792;28;45442;-63